sensor_id;sensor_type;location;lat;lon;timestamp;P1;durP1;ratioP1;P2;durP2;ratioP2
7074;SDS011;3578;51.568;6.932;2023-07-29T00:00:45;4.33;;;3.40;;
7074;SDS011;3578;51.568;6.932;2023-07-29T00:03:12;11.93;;;3.80;;
7074;SDS011;3578;51.568;6.932;2023-07-29T00:05:40;5.20;;;3.60;;
7074;SDS011;3578;51.568;6.932;2023-07-29T00:08:07;4.20;;;3.90;;
7074;SDS011;3578;51.568;6.932;2023-07-29T00:10:37;4.30;;;3.87;;
7074;SDS011;3578;51.568;6.932;2023-07-29T00:13:04;4.43;;;4.03;;
7074;SDS011;3578;51.568;6.932;2023-07-29T00:15:31;9.37;;;4.00;;
7074;SDS011;3578;51.568;6.932;2023-07-29T00:17:58;3.57;;;3.23;;
7074;SDS011;3578;51.568;6.932;2023-07-29T00:20:25;10.67;;;4.80;;
7074;SDS011;3578;51.568;6.932;2023-07-29T00:22:52;4.10;;;3.53;;
7074;SDS011;3578;51.568;6.932;2023-07-29T00:25:20;4.83;;;3.70;;
7074;SDS011;3578;51.568;6.932;2023-07-29T00:27:48;6.37;;;3.47;;
7074;SDS011;3578;51.568;6.932;2023-07-29T00:30:15;3.80;;;3.50;;
7074;SDS011;3578;51.568;6.932;2023-07-29T00:32:42;4.13;;;3.77;;
7074;SDS011;3578;51.568;6.932;2023-07-29T00:35:09;3.77;;;3.47;;
7074;SDS011;3578;51.568;6.932;2023-07-29T00:37:37;4.50;;;3.17;;
7074;SDS011;3578;51.568;6.932;2023-07-29T00:40:04;3.43;;;3.20;;
7074;SDS011;3578;51.568;6.932;2023-07-29T00:42:40;4.23;;;3.80;;
7074;SDS011;3578;51.568;6.932;2023-07-29T00:45:09;4.50;;;3.63;;
7074;SDS011;3578;51.568;6.932;2023-07-29T00:47:36;3.70;;;3.50;;
7074;SDS011;3578;51.568;6.932;2023-07-29T00:50:04;3.80;;;3.50;;
7074;SDS011;3578;51.568;6.932;2023-07-29T00:52:33;3.10;;;2.90;;
7074;SDS011;3578;51.568;6.932;2023-07-29T00:55:00;3.23;;;3.03;;
7074;SDS011;3578;51.568;6.932;2023-07-29T00:57:27;3.57;;;3.10;;
7074;SDS011;3578;51.568;6.932;2023-07-29T00:59:56;4.23;;;3.80;;
7074;SDS011;3578;51.568;6.932;2023-07-29T01:02:24;4.80;;;3.40;;
7074;SDS011;3578;51.568;6.932;2023-07-29T01:04:54;3.40;;;3.20;;
7074;SDS011;3578;51.568;6.932;2023-07-29T01:07:26;3.40;;;3.20;;
7074;SDS011;3578;51.568;6.932;2023-07-29T01:10:01;3.60;;;3.40;;
7074;SDS011;3578;51.568;6.932;2023-07-29T01:12:36;3.53;;;3.13;;
7074;SDS011;3578;51.568;6.932;2023-07-29T01:15:13;3.63;;;3.30;;
7074;SDS011;3578;51.568;6.932;2023-07-29T01:17:47;4.20;;;3.40;;
7074;SDS011;3578;51.568;6.932;2023-07-29T01:20:19;3.47;;;3.27;;
7074;SDS011;3578;51.568;6.932;2023-07-29T01:22:46;3.87;;;3.10;;
7074;SDS011;3578;51.568;6.932;2023-07-29T01:25:15;3.67;;;3.37;;
7074;SDS011;3578;51.568;6.932;2023-07-29T01:27:43;6.90;;;3.07;;
7074;SDS011;3578;51.568;6.932;2023-07-29T01:30:11;3.77;;;3.57;;
7074;SDS011;3578;51.568;6.932;2023-07-29T01:32:40;3.77;;;3.47;;
7074;SDS011;3578;51.568;6.932;2023-07-29T01:35:15;3.33;;;3.03;;
7074;SDS011;3578;51.568;6.932;2023-07-29T01:37:51;3.63;;;3.43;;
7074;SDS011;3578;51.568;6.932;2023-07-29T01:40:23;3.80;;;3.60;;
7074;SDS011;3578;51.568;6.932;2023-07-29T01:42:53;3.80;;;3.40;;
7074;SDS011;3578;51.568;6.932;2023-07-29T01:45:22;3.30;;;3.20;;
7074;SDS011;3578;51.568;6.932;2023-07-29T01:47:50;3.33;;;3.03;;
7074;SDS011;3578;51.568;6.932;2023-07-29T01:50:18;3.57;;;3.27;;
7074;SDS011;3578;51.568;6.932;2023-07-29T01:52:45;3.77;;;3.50;;
7074;SDS011;3578;51.568;6.932;2023-07-29T01:55:12;3.33;;;3.13;;
7074;SDS011;3578;51.568;6.932;2023-07-29T01:57:40;3.50;;;3.30;;
7074;SDS011;3578;51.568;6.932;2023-07-29T02:00:10;4.20;;;3.40;;
7074;SDS011;3578;51.568;6.932;2023-07-29T02:02:38;3.60;;;3.30;;
7074;SDS011;3578;51.568;6.932;2023-07-29T02:05:05;3.63;;;3.33;;
7074;SDS011;3578;51.568;6.932;2023-07-29T02:07:32;6.43;;;3.40;;
7074;SDS011;3578;51.568;6.932;2023-07-29T02:09:59;3.20;;;3.10;;
7074;SDS011;3578;51.568;6.932;2023-07-29T02:12:26;3.77;;;3.50;;
7074;SDS011;3578;51.568;6.932;2023-07-29T02:14:54;2.80;;;2.70;;
7074;SDS011;3578;51.568;6.932;2023-07-29T02:17:21;5.43;;;3.60;;
7074;SDS011;3578;51.568;6.932;2023-07-29T02:19:48;3.30;;;3.07;;
7074;SDS011;3578;51.568;6.932;2023-07-29T02:22:16;3.53;;;3.23;;
7074;SDS011;3578;51.568;6.932;2023-07-29T02:24:44;3.80;;;2.97;;
7074;SDS011;3578;51.568;6.932;2023-07-29T02:27:11;5.80;;;3.03;;
7074;SDS011;3578;51.568;6.932;2023-07-29T02:29:38;2.90;;;2.80;;
7074;SDS011;3578;51.568;6.932;2023-07-29T02:32:06;3.03;;;2.93;;
7074;SDS011;3578;51.568;6.932;2023-07-29T02:34:33;4.53;;;3.77;;
7074;SDS011;3578;51.568;6.932;2023-07-29T02:37:00;2.90;;;2.70;;
7074;SDS011;3578;51.568;6.932;2023-07-29T02:39:27;4.10;;;3.67;;
7074;SDS011;3578;51.568;6.932;2023-07-29T02:41:54;5.27;;;3.50;;
7074;SDS011;3578;51.568;6.932;2023-07-29T02:44:23;3.50;;;3.30;;
7074;SDS011;3578;51.568;6.932;2023-07-29T02:46:50;4.47;;;3.40;;
7074;SDS011;3578;51.568;6.932;2023-07-29T02:49:20;2.93;;;2.73;;
7074;SDS011;3578;51.568;6.932;2023-07-29T02:51:48;6.53;;;3.60;;
7074;SDS011;3578;51.568;6.932;2023-07-29T02:54:15;6.07;;;3.50;;
7074;SDS011;3578;51.568;6.932;2023-07-29T02:56:42;3.40;;;3.20;;
7074;SDS011;3578;51.568;6.932;2023-07-29T02:59:08;6.43;;;3.43;;
7074;SDS011;3578;51.568;6.932;2023-07-29T03:01:35;4.13;;;3.03;;
7074;SDS011;3578;51.568;6.932;2023-07-29T03:04:03;3.67;;;3.37;;
7074;SDS011;3578;51.568;6.932;2023-07-29T03:06:31;3.60;;;3.40;;
7074;SDS011;3578;51.568;6.932;2023-07-29T03:08:58;4.57;;;3.37;;
7074;SDS011;3578;51.568;6.932;2023-07-29T03:11:25;7.93;;;3.63;;
7074;SDS011;3578;51.568;6.932;2023-07-29T03:13:52;3.60;;;3.40;;
7074;SDS011;3578;51.568;6.932;2023-07-29T03:16:19;7.00;;;3.77;;
7074;SDS011;3578;51.568;6.932;2023-07-29T03:18:47;8.67;;;4.10;;
7074;SDS011;3578;51.568;6.932;2023-07-29T03:21:15;9.80;;;4.67;;
7074;SDS011;3578;51.568;6.932;2023-07-29T03:23:43;4.90;;;4.60;;
7074;SDS011;3578;51.568;6.932;2023-07-29T03:26:10;6.23;;;4.40;;
7074;SDS011;3578;51.568;6.932;2023-07-29T03:28:39;3.97;;;3.77;;
7074;SDS011;3578;51.568;6.932;2023-07-29T03:31:08;5.77;;;4.27;;
7074;SDS011;3578;51.568;6.932;2023-07-29T03:33:35;4.43;;;4.13;;
7074;SDS011;3578;51.568;6.932;2023-07-29T03:36:02;5.13;;;4.10;;
7074;SDS011;3578;51.568;6.932;2023-07-29T03:38:30;7.27;;;5.10;;
7074;SDS011;3578;51.568;6.932;2023-07-29T03:40:59;5.83;;;5.33;;
7074;SDS011;3578;51.568;6.932;2023-07-29T03:43:27;7.20;;;6.00;;
7074;SDS011;3578;51.568;6.932;2023-07-29T03:45:54;13.80;;;5.37;;
7074;SDS011;3578;51.568;6.932;2023-07-29T03:48:21;5.80;;;5.30;;
7074;SDS011;3578;51.568;6.932;2023-07-29T03:50:48;6.17;;;5.63;;
7074;SDS011;3578;51.568;6.932;2023-07-29T03:53:15;7.40;;;5.57;;
7074;SDS011;3578;51.568;6.932;2023-07-29T03:55:42;6.13;;;5.70;;
7074;SDS011;3578;51.568;6.932;2023-07-29T03:58:11;6.43;;;5.97;;
7074;SDS011;3578;51.568;6.932;2023-07-29T04:00:38;6.30;;;5.77;;
7074;SDS011;3578;51.568;6.932;2023-07-29T04:03:05;5.87;;;5.33;;
7074;SDS011;3578;51.568;6.932;2023-07-29T04:05:32;7.20;;;6.30;;
7074;SDS011;3578;51.568;6.932;2023-07-29T04:07:59;6.13;;;5.50;;
7074;SDS011;3578;51.568;6.932;2023-07-29T04:10:26;7.00;;;6.17;;
7074;SDS011;3578;51.568;6.932;2023-07-29T04:12:56;6.90;;;5.90;;
7074;SDS011;3578;51.568;6.932;2023-07-29T04:15:25;5.97;;;5.10;;
7074;SDS011;3578;51.568;6.932;2023-07-29T04:17:52;5.43;;;5.03;;
7074;SDS011;3578;51.568;6.932;2023-07-29T04:20:18;11.03;;;5.00;;
7074;SDS011;3578;51.568;6.932;2023-07-29T04:22:45;5.17;;;4.37;;
7074;SDS011;3578;51.568;6.932;2023-07-29T04:25:12;7.53;;;5.07;;
7074;SDS011;3578;51.568;6.932;2023-07-29T04:27:39;5.33;;;4.83;;
7074;SDS011;3578;51.568;6.932;2023-07-29T04:30:07;4.00;;;3.70;;
7074;SDS011;3578;51.568;6.932;2023-07-29T04:32:36;6.03;;;4.00;;
7074;SDS011;3578;51.568;6.932;2023-07-29T04:35:03;4.53;;;4.10;;
7074;SDS011;3578;51.568;6.932;2023-07-29T04:37:31;5.13;;;3.63;;
7074;SDS011;3578;51.568;6.932;2023-07-29T04:39:58;5.40;;;4.47;;
7074;SDS011;3578;51.568;6.932;2023-07-29T04:42:25;6.10;;;4.60;;
7074;SDS011;3578;51.568;6.932;2023-07-29T04:44:52;5.00;;;4.60;;
7074;SDS011;3578;51.568;6.932;2023-07-29T04:47:19;5.47;;;4.67;;
7074;SDS011;3578;51.568;6.932;2023-07-29T04:49:47;5.30;;;5.00;;
7074;SDS011;3578;51.568;6.932;2023-07-29T04:52:14;5.33;;;4.83;;
7074;SDS011;3578;51.568;6.932;2023-07-29T04:54:41;5.13;;;4.73;;
7074;SDS011;3578;51.568;6.932;2023-07-29T04:57:09;5.67;;;5.27;;
7074;SDS011;3578;51.568;6.932;2023-07-29T04:59:34;6.83;;;5.53;;
7074;SDS011;3578;51.568;6.932;2023-07-29T05:02:01;8.63;;;5.60;;
7074;SDS011;3578;51.568;6.932;2023-07-29T05:04:29;7.53;;;5.27;;
7074;SDS011;3578;51.568;6.932;2023-07-29T05:06:57;7.60;;;6.00;;
7074;SDS011;3578;51.568;6.932;2023-07-29T05:09:24;8.30;;;4.57;;
7074;SDS011;3578;51.568;6.932;2023-07-29T05:11:51;9.77;;;5.17;;
7074;SDS011;3578;51.568;6.932;2023-07-29T05:14:18;9.20;;;5.03;;
7074;SDS011;3578;51.568;6.932;2023-07-29T05:16:45;11.07;;;5.63;;
7074;SDS011;3578;51.568;6.932;2023-07-29T05:19:12;5.30;;;4.90;;
7074;SDS011;3578;51.568;6.932;2023-07-29T05:21:39;4.90;;;4.60;;
7074;SDS011;3578;51.568;6.932;2023-07-29T05:24:08;4.80;;;4.40;;
7074;SDS011;3578;51.568;6.932;2023-07-29T05:26:35;5.00;;;4.53;;
7074;SDS011;3578;51.568;6.932;2023-07-29T05:29:02;7.07;;;4.37;;
7074;SDS011;3578;51.568;6.932;2023-07-29T05:31:29;4.60;;;4.20;;
7074;SDS011;3578;51.568;6.932;2023-07-29T05:33:56;5.40;;;4.43;;
7074;SDS011;3578;51.568;6.932;2023-07-29T05:36:23;3.90;;;3.30;;
7074;SDS011;3578;51.568;6.932;2023-07-29T05:38:50;4.07;;;3.63;;
7074;SDS011;3578;51.568;6.932;2023-07-29T05:41:19;8.57;;;3.73;;
7074;SDS011;3578;51.568;6.932;2023-07-29T05:43:46;5.80;;;3.97;;
7074;SDS011;3578;51.568;6.932;2023-07-29T05:46:13;3.70;;;3.40;;
7074;SDS011;3578;51.568;6.932;2023-07-29T05:48:40;5.17;;;3.37;;
7074;SDS011;3578;51.568;6.932;2023-07-29T05:51:07;3.97;;;2.83;;
7074;SDS011;3578;51.568;6.932;2023-07-29T05:53:34;3.10;;;2.90;;
7074;SDS011;3578;51.568;6.932;2023-07-29T05:56:01;3.17;;;2.90;;
7074;SDS011;3578;51.568;6.932;2023-07-29T05:58:29;3.17;;;2.93;;
7074;SDS011;3578;51.568;6.932;2023-07-29T06:00:57;2.77;;;2.50;;
7074;SDS011;3578;51.568;6.932;2023-07-29T06:03:24;5.27;;;2.73;;
7074;SDS011;3578;51.568;6.932;2023-07-29T06:05:51;2.80;;;2.60;;
7074;SDS011;3578;51.568;6.932;2023-07-29T06:08:18;3.63;;;2.80;;
7074;SDS011;3578;51.568;6.932;2023-07-29T06:10:45;2.27;;;2.10;;
7074;SDS011;3578;51.568;6.932;2023-07-29T06:13:12;3.70;;;2.63;;
7074;SDS011;3578;51.568;6.932;2023-07-29T06:15:40;2.80;;;2.70;;
7074;SDS011;3578;51.568;6.932;2023-07-29T06:18:07;4.67;;;2.60;;
7074;SDS011;3578;51.568;6.932;2023-07-29T06:20:34;2.40;;;2.20;;
7074;SDS011;3578;51.568;6.932;2023-07-29T06:23:01;2.93;;;2.73;;
7074;SDS011;3578;51.568;6.932;2023-07-29T06:25:28;3.30;;;2.93;;
7074;SDS011;3578;51.568;6.932;2023-07-29T06:27:55;3.73;;;3.50;;
7074;SDS011;3578;51.568;6.932;2023-07-29T06:30:23;2.60;;;2.40;;
7074;SDS011;3578;51.568;6.932;2023-07-29T06:32:51;6.27;;;3.33;;
7074;SDS011;3578;51.568;6.932;2023-07-29T06:35:18;3.30;;;3.10;;
7074;SDS011;3578;51.568;6.932;2023-07-29T06:37:45;6.23;;;3.27;;
7074;SDS011;3578;51.568;6.932;2023-07-29T06:40:12;4.47;;;2.83;;
7074;SDS011;3578;51.568;6.932;2023-07-29T06:42:40;2.87;;;2.67;;
7074;SDS011;3578;51.568;6.932;2023-07-29T06:45:07;2.73;;;2.53;;
7074;SDS011;3578;51.568;6.932;2023-07-29T06:47:35;5.07;;;2.97;;
7074;SDS011;3578;51.568;6.932;2023-07-29T06:50:03;2.80;;;2.53;;
7074;SDS011;3578;51.568;6.932;2023-07-29T06:52:32;3.37;;;2.93;;
7074;SDS011;3578;51.568;6.932;2023-07-29T06:54:58;3.70;;;2.77;;
7074;SDS011;3578;51.568;6.932;2023-07-29T06:57:26;2.93;;;2.47;;
7074;SDS011;3578;51.568;6.932;2023-07-29T06:59:54;5.00;;;2.37;;
7074;SDS011;3578;51.568;6.932;2023-07-29T07:02:21;2.57;;;2.30;;
7074;SDS011;3578;51.568;6.932;2023-07-29T07:04:47;4.20;;;2.20;;
7074;SDS011;3578;51.568;6.932;2023-07-29T07:07:16;2.27;;;1.73;;
7074;SDS011;3578;51.568;6.932;2023-07-29T07:09:43;2.27;;;1.93;;
7074;SDS011;3578;51.568;6.932;2023-07-29T07:12:10;2.20;;;2.03;;
7074;SDS011;3578;51.568;6.932;2023-07-29T07:14:37;2.20;;;2.10;;
7074;SDS011;3578;51.568;6.932;2023-07-29T07:17:04;2.10;;;2.00;;
7074;SDS011;3578;51.568;6.932;2023-07-29T07:19:31;2.53;;;1.90;;
7074;SDS011;3578;51.568;6.932;2023-07-29T07:21:58;2.03;;;1.93;;
7074;SDS011;3578;51.568;6.932;2023-07-29T07:24:26;3.43;;;1.90;;
7074;SDS011;3578;51.568;6.932;2023-07-29T07:26:53;1.60;;;1.60;;
7074;SDS011;3578;51.568;6.932;2023-07-29T07:29:20;2.17;;;2.07;;
7074;SDS011;3578;51.568;6.932;2023-07-29T07:31:49;3.63;;;2.03;;
7074;SDS011;3578;51.568;6.932;2023-07-29T07:34:18;2.50;;;1.87;;
7074;SDS011;3578;51.568;6.932;2023-07-29T07:36:45;2.30;;;2.20;;
7074;SDS011;3578;51.568;6.932;2023-07-29T07:39:12;1.80;;;1.70;;
7074;SDS011;3578;51.568;6.932;2023-07-29T07:41:41;2.00;;;2.00;;
7074;SDS011;3578;51.568;6.932;2023-07-29T07:44:08;1.87;;;1.77;;
7074;SDS011;3578;51.568;6.932;2023-07-29T07:46:36;1.70;;;1.60;;
7074;SDS011;3578;51.568;6.932;2023-07-29T07:49:03;1.80;;;1.70;;
7074;SDS011;3578;51.568;6.932;2023-07-29T07:51:30;2.53;;;2.33;;
7074;SDS011;3578;51.568;6.932;2023-07-29T07:53:57;1.67;;;1.57;;
7074;SDS011;3578;51.568;6.932;2023-07-29T07:56:24;2.43;;;1.87;;
7074;SDS011;3578;51.568;6.932;2023-07-29T07:58:52;1.97;;;1.87;;
7074;SDS011;3578;51.568;6.932;2023-07-29T08:01:19;2.70;;;1.60;;
7074;SDS011;3578;51.568;6.932;2023-07-29T08:03:46;10.50;;;2.60;;
7074;SDS011;3578;51.568;6.932;2023-07-29T08:06:13;9.47;;;1.77;;
7074;SDS011;3578;51.568;6.932;2023-07-29T08:08:40;1.63;;;1.53;;
7074;SDS011;3578;51.568;6.932;2023-07-29T08:11:07;2.30;;;2.10;;
7074;SDS011;3578;51.568;6.932;2023-07-29T08:13:34;2.10;;;1.90;;
7074;SDS011;3578;51.568;6.932;2023-07-29T08:16:02;7.30;;;1.80;;
7074;SDS011;3578;51.568;6.932;2023-07-29T08:18:29;2.50;;;1.80;;
7074;SDS011;3578;51.568;6.932;2023-07-29T08:20:57;3.07;;;2.10;;
7074;SDS011;3578;51.568;6.932;2023-07-29T08:23:28;3.20;;;2.50;;
7074;SDS011;3578;51.568;6.932;2023-07-29T08:25:56;2.37;;;2.17;;
7074;SDS011;3578;51.568;6.932;2023-07-29T08:28:27;2.83;;;2.63;;
7074;SDS011;3578;51.568;6.932;2023-07-29T08:30:54;2.30;;;2.17;;
7074;SDS011;3578;51.568;6.932;2023-07-29T08:33:23;4.40;;;2.70;;
7074;SDS011;3578;51.568;6.932;2023-07-29T08:35:50;3.53;;;3.20;;
7074;SDS011;3578;51.568;6.932;2023-07-29T08:38:17;5.43;;;2.17;;
7074;SDS011;3578;51.568;6.932;2023-07-29T08:40:45;3.13;;;2.40;;
7074;SDS011;3578;51.568;6.932;2023-07-29T08:43:16;2.10;;;1.97;;
7074;SDS011;3578;51.568;6.932;2023-07-29T08:45:46;1.90;;;1.80;;
7074;SDS011;3578;51.568;6.932;2023-07-29T08:48:13;2.47;;;2.30;;
7074;SDS011;3578;51.568;6.932;2023-07-29T08:50:46;3.07;;;2.13;;
7074;SDS011;3578;51.568;6.932;2023-07-29T08:53:15;2.20;;;2.10;;
7074;SDS011;3578;51.568;6.932;2023-07-29T08:55:42;1.83;;;1.73;;
7074;SDS011;3578;51.568;6.932;2023-07-29T08:58:09;2.27;;;2.17;;
7074;SDS011;3578;51.568;6.932;2023-07-29T09:00:37;4.77;;;2.40;;
7074;SDS011;3578;51.568;6.932;2023-07-29T09:03:05;2.07;;;1.20;;
7074;SDS011;3578;51.568;6.932;2023-07-29T09:05:32;2.17;;;1.40;;
7074;SDS011;3578;51.568;6.932;2023-07-29T09:08:01;3.50;;;1.60;;
7074;SDS011;3578;51.568;6.932;2023-07-29T09:10:30;2.37;;;1.50;;
7074;SDS011;3578;51.568;6.932;2023-07-29T09:13:02;1.93;;;1.83;;
7074;SDS011;3578;51.568;6.932;2023-07-29T09:15:29;1.60;;;1.50;;
7074;SDS011;3578;51.568;6.932;2023-07-29T09:17:58;1.63;;;1.53;;
7074;SDS011;3578;51.568;6.932;2023-07-29T09:20:34;5.47;;;2.07;;
7074;SDS011;3578;51.568;6.932;2023-07-29T09:23:03;2.07;;;1.80;;
7074;SDS011;3578;51.568;6.932;2023-07-29T09:25:35;2.77;;;1.60;;
7074;SDS011;3578;51.568;6.932;2023-07-29T09:28:07;1.93;;;1.83;;
7074;SDS011;3578;51.568;6.932;2023-07-29T09:30:37;1.80;;;1.70;;
7074;SDS011;3578;51.568;6.932;2023-07-29T09:33:05;2.73;;;1.80;;
7074;SDS011;3578;51.568;6.932;2023-07-29T09:35:33;1.93;;;1.30;;
7074;SDS011;3578;51.568;6.932;2023-07-29T09:38:03;1.50;;;1.50;;
7074;SDS011;3578;51.568;6.932;2023-07-29T09:40:35;1.27;;;1.17;;
7074;SDS011;3578;51.568;6.932;2023-07-29T09:43:04;1.50;;;1.40;;
7074;SDS011;3578;51.568;6.932;2023-07-29T09:45:32;2.30;;;1.47;;
7074;SDS011;3578;51.568;6.932;2023-07-29T09:48:01;2.93;;;1.33;;
7074;SDS011;3578;51.568;6.932;2023-07-29T09:50:34;3.43;;;1.70;;
7074;SDS011;3578;51.568;6.932;2023-07-29T09:53:03;3.00;;;1.80;;
7074;SDS011;3578;51.568;6.932;2023-07-29T09:55:32;1.60;;;1.50;;
7074;SDS011;3578;51.568;6.932;2023-07-29T09:58:00;2.60;;;1.80;;
7074;SDS011;3578;51.568;6.932;2023-07-29T10:00:32;1.43;;;1.37;;
7074;SDS011;3578;51.568;6.932;2023-07-29T10:02:59;2.10;;;2.00;;
7074;SDS011;3578;51.568;6.932;2023-07-29T10:05:27;1.70;;;1.60;;
7074;SDS011;3578;51.568;6.932;2023-07-29T10:07:56;2.30;;;1.90;;
7074;SDS011;3578;51.568;6.932;2023-07-29T10:10:25;1.43;;;1.23;;
7074;SDS011;3578;51.568;6.932;2023-07-29T10:12:53;1.77;;;1.67;;
7074;SDS011;3578;51.568;6.932;2023-07-29T10:15:22;1.90;;;1.80;;
7074;SDS011;3578;51.568;6.932;2023-07-29T10:17:50;1.83;;;1.57;;
7074;SDS011;3578;51.568;6.932;2023-07-29T10:20:18;1.63;;;1.53;;
7074;SDS011;3578;51.568;6.932;2023-07-29T10:22:46;1.80;;;1.70;;
7074;SDS011;3578;51.568;6.932;2023-07-29T10:25:15;1.57;;;1.53;;
7074;SDS011;3578;51.568;6.932;2023-07-29T10:27:47;1.10;;;1.10;;
7074;SDS011;3578;51.568;6.932;2023-07-29T10:30:18;1.37;;;1.37;;
7074;SDS011;3578;51.568;6.932;2023-07-29T10:32:45;1.53;;;1.53;;
7074;SDS011;3578;51.568;6.932;2023-07-29T10:35:13;1.53;;;1.40;;
7074;SDS011;3578;51.568;6.932;2023-07-29T10:37:41;1.10;;;1.10;;
7074;SDS011;3578;51.568;6.932;2023-07-29T10:40:10;1.90;;;1.33;;
7074;SDS011;3578;51.568;6.932;2023-07-29T10:42:38;4.33;;;1.50;;
7074;SDS011;3578;51.568;6.932;2023-07-29T10:45:26;1.80;;;1.70;;
7074;SDS011;3578;51.568;6.932;2023-07-29T10:48:04;2.13;;;1.73;;
7074;SDS011;3578;51.568;6.932;2023-07-29T10:50:33;5.07;;;2.20;;
7074;SDS011;3578;51.568;6.932;2023-07-29T10:53:01;2.00;;;1.90;;
7074;SDS011;3578;51.568;6.932;2023-07-29T10:55:29;4.13;;;1.80;;
7074;SDS011;3578;51.568;6.932;2023-07-29T10:58:05;2.47;;;2.37;;
7074;SDS011;3578;51.568;6.932;2023-07-29T11:00:36;2.40;;;2.30;;
7074;SDS011;3578;51.568;6.932;2023-07-29T11:03:05;2.23;;;2.10;;
7074;SDS011;3578;51.568;6.932;2023-07-29T11:05:42;2.57;;;2.37;;
7074;SDS011;3578;51.568;6.932;2023-07-29T11:08:18;3.93;;;2.23;;
7074;SDS011;3578;51.568;6.932;2023-07-29T11:11:01;2.50;;;2.00;;
7074;SDS011;3578;51.568;6.932;2023-07-29T11:13:32;4.23;;;1.93;;
7074;SDS011;3578;51.568;6.932;2023-07-29T11:16:02;2.73;;;1.80;;
7074;SDS011;3578;51.568;6.932;2023-07-29T11:18:30;2.50;;;2.10;;
7074;SDS011;3578;51.568;6.932;2023-07-29T11:21:00;2.80;;;1.97;;
7074;SDS011;3578;51.568;6.932;2023-07-29T11:23:29;2.23;;;2.13;;
7074;SDS011;3578;51.568;6.932;2023-07-29T11:25:58;2.03;;;1.93;;
7074;SDS011;3578;51.568;6.932;2023-07-29T11:28:25;1.67;;;1.57;;
7074;SDS011;3578;51.568;6.932;2023-07-29T11:30:53;1.77;;;1.43;;
7074;SDS011;3578;51.568;6.932;2023-07-29T11:33:23;1.90;;;1.80;;
7074;SDS011;3578;51.568;6.932;2023-07-29T11:35:53;3.00;;;1.90;;
7074;SDS011;3578;51.568;6.932;2023-07-29T11:38:21;1.80;;;1.70;;
7074;SDS011;3578;51.568;6.932;2023-07-29T11:40:55;2.07;;;1.97;;
7074;SDS011;3578;51.568;6.932;2023-07-29T11:43:25;1.77;;;1.67;;
7074;SDS011;3578;51.568;6.932;2023-07-29T11:45:53;3.43;;;1.53;;
7074;SDS011;3578;51.568;6.932;2023-07-29T11:48:27;1.73;;;1.53;;
7074;SDS011;3578;51.568;6.932;2023-07-29T11:50:57;3.03;;;1.63;;
7074;SDS011;3578;51.568;6.932;2023-07-29T11:53:25;1.97;;;1.50;;
7074;SDS011;3578;51.568;6.932;2023-07-29T11:55:55;2.17;;;2.07;;
7074;SDS011;3578;51.568;6.932;2023-07-29T11:58:22;1.60;;;1.50;;
7074;SDS011;3578;51.568;6.932;2023-07-29T12:00:50;1.90;;;1.80;;
7074;SDS011;3578;51.568;6.932;2023-07-29T12:03:18;1.90;;;1.70;;
7074;SDS011;3578;51.568;6.932;2023-07-29T12:05:46;6.07;;;1.40;;
7074;SDS011;3578;51.568;6.932;2023-07-29T12:08:14;1.80;;;1.70;;
7074;SDS011;3578;51.568;6.932;2023-07-29T12:10:41;1.83;;;1.73;;
7074;SDS011;3578;51.568;6.932;2023-07-29T12:13:09;3.70;;;1.60;;
7074;SDS011;3578;51.568;6.932;2023-07-29T12:15:37;1.97;;;1.40;;
7074;SDS011;3578;51.568;6.932;2023-07-29T12:18:05;2.37;;;1.70;;
7074;SDS011;3578;51.568;6.932;2023-07-29T12:20:32;1.60;;;1.50;;
7074;SDS011;3578;51.568;6.932;2023-07-29T12:23:01;4.53;;;1.80;;
7074;SDS011;3578;51.568;6.932;2023-07-29T12:25:31;3.23;;;1.77;;
7074;SDS011;3578;51.568;6.932;2023-07-29T12:28:01;1.37;;;1.37;;
7074;SDS011;3578;51.568;6.932;2023-07-29T12:30:30;1.57;;;1.57;;
7074;SDS011;3578;51.568;6.932;2023-07-29T12:32:57;1.20;;;1.20;;
7074;SDS011;3578;51.568;6.932;2023-07-29T12:35:24;1.20;;;1.20;;
7074;SDS011;3578;51.568;6.932;2023-07-29T12:38:02;1.93;;;1.80;;
7074;SDS011;3578;51.568;6.932;2023-07-29T12:40:29;3.10;;;1.80;;
7074;SDS011;3578;51.568;6.932;2023-07-29T12:42:56;1.43;;;1.33;;
7074;SDS011;3578;51.568;6.932;2023-07-29T12:45:23;1.87;;;1.77;;
7074;SDS011;3578;51.568;6.932;2023-07-29T12:47:52;1.77;;;1.50;;
7074;SDS011;3578;51.568;6.932;2023-07-29T12:50:19;1.53;;;1.53;;
7074;SDS011;3578;51.568;6.932;2023-07-29T12:52:46;1.70;;;1.60;;
7074;SDS011;3578;51.568;6.932;2023-07-29T12:55:14;1.33;;;1.33;;
7074;SDS011;3578;51.568;6.932;2023-07-29T12:57:41;1.57;;;1.43;;
7074;SDS011;3578;51.568;6.932;2023-07-29T13:00:09;1.97;;;1.87;;
7074;SDS011;3578;51.568;6.932;2023-07-29T13:02:37;1.80;;;1.70;;
7074;SDS011;3578;51.568;6.932;2023-07-29T13:05:05;1.53;;;1.53;;
7074;SDS011;3578;51.568;6.932;2023-07-29T13:07:36;1.83;;;1.70;;
7074;SDS011;3578;51.568;6.932;2023-07-29T13:10:03;1.70;;;1.60;;
7074;SDS011;3578;51.568;6.932;2023-07-29T13:12:32;1.60;;;1.50;;
7074;SDS011;3578;51.568;6.932;2023-07-29T13:15:02;1.87;;;1.70;;
7074;SDS011;3578;51.568;6.932;2023-07-29T13:17:30;1.70;;;1.60;;
7074;SDS011;3578;51.568;6.932;2023-07-29T13:19:58;3.47;;;1.20;;
7074;SDS011;3578;51.568;6.932;2023-07-29T13:22:25;2.00;;;1.90;;
7074;SDS011;3578;51.568;6.932;2023-07-29T13:24:52;1.77;;;1.67;;
7074;SDS011;3578;51.568;6.932;2023-07-29T13:27:19;1.93;;;1.83;;
7074;SDS011;3578;51.568;6.932;2023-07-29T13:29:47;5.50;;;1.87;;
7074;SDS011;3578;51.568;6.932;2023-07-29T13:32:14;2.13;;;1.90;;
7074;SDS011;3578;51.568;6.932;2023-07-29T13:34:41;2.47;;;2.27;;
7074;SDS011;3578;51.568;6.932;2023-07-29T13:37:08;1.97;;;1.87;;
7074;SDS011;3578;51.568;6.932;2023-07-29T13:39:35;1.90;;;1.80;;
7074;SDS011;3578;51.568;6.932;2023-07-29T13:42:02;1.70;;;1.60;;
7074;SDS011;3578;51.568;6.932;2023-07-29T13:44:29;2.03;;;1.93;;
7074;SDS011;3578;51.568;6.932;2023-07-29T13:46:58;2.73;;;1.90;;
7074;SDS011;3578;51.568;6.932;2023-07-29T13:49:25;1.70;;;1.63;;
7074;SDS011;3578;51.568;6.932;2023-07-29T13:51:52;2.10;;;2.00;;
7074;SDS011;3578;51.568;6.932;2023-07-29T13:54:18;4.33;;;2.20;;
7074;SDS011;3578;51.568;6.932;2023-07-29T13:56:46;2.40;;;2.20;;
7074;SDS011;3578;51.568;6.932;2023-07-29T13:59:13;5.57;;;2.10;;
7074;SDS011;3578;51.568;6.932;2023-07-29T14:01:40;6.63;;;1.57;;
7074;SDS011;3578;51.568;6.932;2023-07-29T14:04:08;4.80;;;1.40;;
7074;SDS011;3578;51.568;6.932;2023-07-29T14:06:35;1.57;;;1.37;;
7074;SDS011;3578;51.568;6.932;2023-07-29T14:09:02;2.00;;;1.90;;
7074;SDS011;3578;51.568;6.932;2023-07-29T14:11:29;2.17;;;1.50;;
7074;SDS011;3578;51.568;6.932;2023-07-29T14:13:56;3.27;;;1.73;;
7074;SDS011;3578;51.568;6.932;2023-07-29T14:16:23;5.70;;;1.50;;
7074;SDS011;3578;51.568;6.932;2023-07-29T14:18:50;4.57;;;1.50;;
7074;SDS011;3578;51.568;6.932;2023-07-29T14:21:18;1.50;;;1.40;;
7074;SDS011;3578;51.568;6.932;2023-07-29T14:23:45;4.07;;;2.47;;
7074;SDS011;3578;51.568;6.932;2023-07-29T14:26:12;2.30;;;1.70;;
7074;SDS011;3578;51.568;6.932;2023-07-29T14:28:39;2.30;;;1.60;;
7074;SDS011;3578;51.568;6.932;2023-07-29T14:31:06;4.20;;;1.47;;
7074;SDS011;3578;51.568;6.932;2023-07-29T14:33:33;2.83;;;1.50;;
7074;SDS011;3578;51.568;6.932;2023-07-29T14:36:00;2.80;;;2.03;;
7074;SDS011;3578;51.568;6.932;2023-07-29T14:38:29;1.47;;;1.30;;
7074;SDS011;3578;51.568;6.932;2023-07-29T14:40:56;3.97;;;1.73;;
7074;SDS011;3578;51.568;6.932;2023-07-29T14:43:23;7.60;;;1.63;;
7074;SDS011;3578;51.568;6.932;2023-07-29T14:45:50;1.97;;;1.43;;
7074;SDS011;3578;51.568;6.932;2023-07-29T14:48:17;1.47;;;1.33;;
7074;SDS011;3578;51.568;6.932;2023-07-29T14:50:44;1.80;;;1.70;;
7074;SDS011;3578;51.568;6.932;2023-07-29T14:53:11;1.77;;;1.67;;
7074;SDS011;3578;51.568;6.932;2023-07-29T14:55:40;3.43;;;1.90;;
7074;SDS011;3578;51.568;6.932;2023-07-29T14:58:07;2.00;;;1.60;;
7074;SDS011;3578;51.568;6.932;2023-07-29T15:00:34;3.03;;;1.50;;
7074;SDS011;3578;51.568;6.932;2023-07-29T15:03:01;1.70;;;1.60;;
7074;SDS011;3578;51.568;6.932;2023-07-29T15:05:28;1.93;;;1.83;;
7074;SDS011;3578;51.568;6.932;2023-07-29T15:07:55;1.90;;;1.90;;
7074;SDS011;3578;51.568;6.932;2023-07-29T15:10:22;2.00;;;1.90;;
7074;SDS011;3578;51.568;6.932;2023-07-29T15:12:50;2.00;;;1.90;;
7074;SDS011;3578;51.568;6.932;2023-07-29T15:15:17;3.43;;;2.20;;
7074;SDS011;3578;51.568;6.932;2023-07-29T15:17:44;2.10;;;2.00;;
7074;SDS011;3578;51.568;6.932;2023-07-29T15:20:12;3.50;;;2.80;;